sensor_id;sensor_type;location;lat;lon;timestamp;P1;durP1;ratioP1;P2;durP2;ratioP2
8803;SDS011;4438;50.890;4.726;2022-08-19T00:01:09;12.77;;;11.63;;
8803;SDS011;4438;50.890;4.726;2022-08-19T00:03:35;11.70;;;10.80;;
8803;SDS011;4438;50.890;4.726;2022-08-19T00:06:01;10.93;;;10.13;;
8803;SDS011;4438;50.890;4.726;2022-08-19T00:08:28;11.70;;;10.90;;
8803;SDS011;4438;50.890;4.726;2022-08-19T00:10:54;11.53;;;10.70;;
8803;SDS011;4438;50.890;4.726;2022-08-19T00:13:20;12.03;;;11.13;;
8803;SDS011;4438;50.890;4.726;2022-08-19T00:15:46;11.70;;;10.80;;
8803;SDS011;4438;50.890;4.726;2022-08-19T00:18:12;10.87;;;9.97;;
8803;SDS011;4438;50.890;4.726;2022-08-19T00:20:38;11.70;;;10.90;;
8803;SDS011;4438;50.890;4.726;2022-08-19T00:23:05;13.13;;;12.17;;
8803;SDS011;4438;50.890;4.726;2022-08-19T00:25:32;13.20;;;11.93;;
8803;SDS011;4438;50.890;4.726;2022-08-19T00:27:58;12.10;;;11.20;;
8803;SDS011;4438;50.890;4.726;2022-08-19T00:30:25;12.53;;;11.63;;
8803;SDS011;4438;50.890;4.726;2022-08-19T00:32:52;13.37;;;12.33;;
8803;SDS011;4438;50.890;4.726;2022-08-19T00:35:20;14.70;;;13.57;;
8803;SDS011;4438;50.890;4.726;2022-08-19T00:37:47;13.27;;;12.17;;
8803;SDS011;4438;50.890;4.726;2022-08-19T00:40:13;14.37;;;13.17;;
8803;SDS011;4438;50.890;4.726;2022-08-19T00:42:40;15.37;;;14.10;;
8803;SDS011;4438;50.890;4.726;2022-08-19T00:45:26;15.30;;;14.10;;
8803;SDS011;4438;50.890;4.726;2022-08-19T00:47:52;15.40;;;14.07;;
8803;SDS011;4438;50.890;4.726;2022-08-19T00:50:19;14.73;;;13.53;;
8803;SDS011;4438;50.890;4.726;2022-08-19T00:52:47;19.13;;;17.43;;
8803;SDS011;4438;50.890;4.726;2022-08-19T00:55:16;17.70;;;16.13;;
8803;SDS011;4438;50.890;4.726;2022-08-19T00:57:44;22.30;;;20.27;;
8803;SDS011;4438;50.890;4.726;2022-08-19T01:00:13;20.40;;;18.60;;
8803;SDS011;4438;50.890;4.726;2022-08-19T01:02:40;24.00;;;21.60;;
8803;SDS011;4438;50.890;4.726;2022-08-19T01:05:08;24.17;;;21.90;;
8803;SDS011;4438;50.890;4.726;2022-08-19T01:07:35;26.33;;;23.83;;
8803;SDS011;4438;50.890;4.726;2022-08-19T01:10:01;25.17;;;22.67;;
8803;SDS011;4438;50.890;4.726;2022-08-19T01:12:28;26.13;;;23.73;;
8803;SDS011;4438;50.890;4.726;2022-08-19T01:14:55;28.93;;;26.03;;
8803;SDS011;4438;50.890;4.726;2022-08-19T01:17:21;28.30;;;25.60;;
8803;SDS011;4438;50.890;4.726;2022-08-19T01:19:47;27.40;;;24.70;;
8803;SDS011;4438;50.890;4.726;2022-08-19T01:24:43;30.37;;;27.17;;
8803;SDS011;4438;50.890;4.726;2022-08-19T01:27:09;26.70;;;24.03;;
8803;SDS011;4438;50.890;4.726;2022-08-19T01:29:37;27.63;;;24.83;;
8803;SDS011;4438;50.890;4.726;2022-08-19T01:32:03;32.03;;;28.73;;
8803;SDS011;4438;50.890;4.726;2022-08-19T01:34:29;32.50;;;29.23;;
8803;SDS011;4438;50.890;4.726;2022-08-19T01:36:56;33.23;;;29.83;;
8803;SDS011;4438;50.890;4.726;2022-08-19T01:39:23;31.83;;;28.07;;
8803;SDS011;4438;50.890;4.726;2022-08-19T01:41:49;31.00;;;27.80;;
8803;SDS011;4438;50.890;4.726;2022-08-19T01:44:19;30.60;;;27.40;;
8803;SDS011;4438;50.890;4.726;2022-08-19T01:46:48;32.03;;;28.63;;
8803;SDS011;4438;50.890;4.726;2022-08-19T01:49:15;29.90;;;26.80;;
8803;SDS011;4438;50.890;4.726;2022-08-19T01:51:41;31.33;;;28.13;;
8803;SDS011;4438;50.890;4.726;2022-08-19T01:54:08;30.10;;;26.93;;
8803;SDS011;4438;50.890;4.726;2022-08-19T01:56:35;30.40;;;27.30;;
8803;SDS011;4438;50.890;4.726;2022-08-19T01:59:02;30.57;;;27.37;;
8803;SDS011;4438;50.890;4.726;2022-08-19T02:01:28;31.90;;;28.57;;
8803;SDS011;4438;50.890;4.726;2022-08-19T02:03:59;29.67;;;26.53;;
8803;SDS011;4438;50.890;4.726;2022-08-19T02:06:26;33.50;;;29.97;;
8803;SDS011;4438;50.890;4.726;2022-08-19T02:08:52;31.37;;;28.17;;
8803;SDS011;4438;50.890;4.726;2022-08-19T02:11:20;30.50;;;27.43;;
8803;SDS011;4438;50.890;4.726;2022-08-19T02:13:46;30.57;;;27.40;;
8803;SDS011;4438;50.890;4.726;2022-08-19T02:16:12;29.80;;;26.80;;
8803;SDS011;4438;50.890;4.726;2022-08-19T02:18:38;31.70;;;28.30;;
8803;SDS011;4438;50.890;4.726;2022-08-19T02:21:04;30.93;;;27.63;;
8803;SDS011;4438;50.890;4.726;2022-08-19T02:23:31;32.97;;;29.67;;
8803;SDS011;4438;50.890;4.726;2022-08-19T02:25:57;29.37;;;26.40;;
8803;SDS011;4438;50.890;4.726;2022-08-19T02:28:23;30.43;;;27.43;;
8803;SDS011;4438;50.890;4.726;2022-08-19T02:30:49;32.70;;;29.17;;
8803;SDS011;4438;50.890;4.726;2022-08-19T02:33:15;36.97;;;32.97;;
8803;SDS011;4438;50.890;4.726;2022-08-19T02:35:42;33.07;;;29.57;;
8803;SDS011;4438;50.890;4.726;2022-08-19T02:38:08;31.00;;;27.87;;
8803;SDS011;4438;50.890;4.726;2022-08-19T02:41:12;32.80;;;29.27;;
8803;SDS011;4438;50.890;4.726;2022-08-19T02:43:38;33.73;;;30.03;;
8803;SDS011;4438;50.890;4.726;2022-08-19T02:46:38;33.83;;;30.37;;
8803;SDS011;4438;50.890;4.726;2022-08-19T02:49:01;33.67;;;30.20;;
8803;SDS011;4438;50.890;4.726;2022-08-19T02:51:29;33.80;;;30.23;;
8803;SDS011;4438;50.890;4.726;2022-08-19T02:53:55;39.50;;;35.20;;
8803;SDS011;4438;50.890;4.726;2022-08-19T02:56:22;34.50;;;30.73;;
8803;SDS011;4438;50.890;4.726;2022-08-19T02:58:49;32.73;;;29.33;;
8803;SDS011;4438;50.890;4.726;2022-08-19T03:01:32;33.83;;;30.33;;
8803;SDS011;4438;50.890;4.726;2022-08-19T03:03:59;33.70;;;30.00;;
8803;SDS011;4438;50.890;4.726;2022-08-19T03:06:26;32.77;;;29.37;;
8803;SDS011;4438;50.890;4.726;2022-08-19T03:08:53;32.63;;;29.13;;
8803;SDS011;4438;50.890;4.726;2022-08-19T03:13:45;35.90;;;32.00;;
8803;SDS011;4438;50.890;4.726;2022-08-19T03:16:14;35.40;;;30.93;;
8803;SDS011;4438;50.890;4.726;2022-08-19T03:18:41;33.27;;;29.77;;
8803;SDS011;4438;50.890;4.726;2022-08-19T03:21:07;32.73;;;29.17;;
8803;SDS011;4438;50.890;4.726;2022-08-19T03:23:34;34.10;;;30.50;;
8803;SDS011;4438;50.890;4.726;2022-08-19T03:26:03;30.13;;;26.97;;
8803;SDS011;4438;50.890;4.726;2022-08-19T03:28:29;31.87;;;28.40;;
8803;SDS011;4438;50.890;4.726;2022-08-19T03:30:57;30.97;;;27.27;;
8803;SDS011;4438;50.890;4.726;2022-08-19T03:33:23;29.23;;;26.17;;
8803;SDS011;4438;50.890;4.726;2022-08-19T03:36:03;30.03;;;26.83;;
8803;SDS011;4438;50.890;4.726;2022-08-19T03:38:30;30.27;;;27.17;;
8803;SDS011;4438;50.890;4.726;2022-08-19T03:40:57;29.57;;;26.57;;
8803;SDS011;4438;50.890;4.726;2022-08-19T03:43:23;28.83;;;25.33;;
8803;SDS011;4438;50.890;4.726;2022-08-19T03:45:59;28.33;;;25.40;;
8803;SDS011;4438;50.890;4.726;2022-08-19T03:48:25;28.93;;;25.97;;
8803;SDS011;4438;50.890;4.726;2022-08-19T03:50:51;32.70;;;29.23;;
8803;SDS011;4438;50.890;4.726;2022-08-19T03:53:17;30.57;;;27.33;;
8803;SDS011;4438;50.890;4.726;2022-08-19T03:55:43;32.10;;;28.70;;
8803;SDS011;4438;50.890;4.726;2022-08-19T03:58:09;31.50;;;28.00;;
8803;SDS011;4438;50.890;4.726;2022-08-19T04:00:36;30.40;;;27.20;;
8803;SDS011;4438;50.890;4.726;2022-08-19T04:03:02;29.80;;;26.60;;
8803;SDS011;4438;50.890;4.726;2022-08-19T04:05:28;30.20;;;27.00;;
8803;SDS011;4438;50.890;4.726;2022-08-19T04:07:54;28.33;;;25.63;;
8803;SDS011;4438;50.890;4.726;2022-08-19T04:10:24;28.00;;;25.13;;
8803;SDS011;4438;50.890;4.726;2022-08-19T04:12:50;29.53;;;26.53;;
8803;SDS011;4438;50.890;4.726;2022-08-19T04:15:16;29.80;;;26.70;;
8803;SDS011;4438;50.890;4.726;2022-08-19T04:17:42;29.57;;;26.37;;
8803;SDS011;4438;50.890;4.726;2022-08-19T04:20:08;28.57;;;25.67;;
8803;SDS011;4438;50.890;4.726;2022-08-19T04:22:34;27.53;;;24.70;;
8803;SDS011;4438;50.890;4.726;2022-08-19T04:25:01;28.63;;;25.63;;
8803;SDS011;4438;50.890;4.726;2022-08-19T04:27:27;28.07;;;25.13;;
8803;SDS011;4438;50.890;4.726;2022-08-19T04:29:53;27.97;;;25.13;;
8803;SDS011;4438;50.890;4.726;2022-08-19T04:32:20;27.57;;;24.77;;
8803;SDS011;4438;50.890;4.726;2022-08-19T04:34:46;28.43;;;25.63;;
8803;SDS011;4438;50.890;4.726;2022-08-19T04:37:12;28.50;;;25.70;;
8803;SDS011;4438;50.890;4.726;2022-08-19T04:39:39;27.80;;;25.07;;
8803;SDS011;4438;50.890;4.726;2022-08-19T04:42:24;26.37;;;23.67;;
8803;SDS011;4438;50.890;4.726;2022-08-19T04:45:11;27.47;;;24.53;;
8803;SDS011;4438;50.890;4.726;2022-08-19T04:47:38;30.23;;;27.07;;
8803;SDS011;4438;50.890;4.726;2022-08-19T04:50:05;27.20;;;24.33;;
8803;SDS011;4438;50.890;4.726;2022-08-19T04:52:31;25.27;;;22.73;;
8803;SDS011;4438;50.890;4.726;2022-08-19T04:54:57;26.83;;;24.13;;
8803;SDS011;4438;50.890;4.726;2022-08-19T04:57:23;28.50;;;25.43;;
8803;SDS011;4438;50.890;4.726;2022-08-19T04:59:53;28.87;;;25.77;;
8803;SDS011;4438;50.890;4.726;2022-08-19T05:02:19;26.83;;;23.93;;
8803;SDS011;4438;50.890;4.726;2022-08-19T05:04:56;25.77;;;23.17;;
8803;SDS011;4438;50.890;4.726;2022-08-19T05:07:22;28.33;;;24.97;;
8803;SDS011;4438;50.890;4.726;2022-08-19T05:09:48;28.87;;;25.50;;
8803;SDS011;4438;50.890;4.726;2022-08-19T05:12:14;26.70;;;23.90;;
8803;SDS011;4438;50.890;4.726;2022-08-19T05:14:40;28.80;;;24.13;;
8803;SDS011;4438;50.890;4.726;2022-08-19T05:17:06;28.60;;;25.50;;
8803;SDS011;4438;50.890;4.726;2022-08-19T05:19:33;28.27;;;25.37;;
8803;SDS011;4438;50.890;4.726;2022-08-19T05:22:17;28.00;;;24.43;;
8803;SDS011;4438;50.890;4.726;2022-08-19T05:25:06;26.07;;;23.17;;
8803;SDS011;4438;50.890;4.726;2022-08-19T05:27:32;29.83;;;25.13;;
8803;SDS011;4438;50.890;4.726;2022-08-19T05:29:59;27.07;;;23.73;;
8803;SDS011;4438;50.890;4.726;2022-08-19T05:32:25;26.80;;;23.93;;
8803;SDS011;4438;50.890;4.726;2022-08-19T05:34:51;28.20;;;23.83;;
8803;SDS011;4438;50.890;4.726;2022-08-19T05:37:17;25.63;;;22.87;;
8803;SDS011;4438;50.890;4.726;2022-08-19T05:39:43;25.17;;;22.47;;
8803;SDS011;4438;50.890;4.726;2022-08-19T05:42:10;28.80;;;23.13;;
8803;SDS011;4438;50.890;4.726;2022-08-19T05:44:38;26.27;;;22.03;;
8803;SDS011;4438;50.890;4.726;2022-08-19T05:47:09;28.37;;;22.97;;
8803;SDS011;4438;50.890;4.726;2022-08-19T05:49:35;26.60;;;22.30;;
8803;SDS011;4438;50.890;4.726;2022-08-19T05:52:06;28.30;;;24.13;;
8803;SDS011;4438;50.890;4.726;2022-08-19T05:54:32;30.67;;;24.43;;
8803;SDS011;4438;50.890;4.726;2022-08-19T05:56:59;30.20;;;24.50;;
8803;SDS011;4438;50.890;4.726;2022-08-19T05:59:26;31.73;;;25.63;;
8803;SDS011;4438;50.890;4.726;2022-08-19T06:01:52;32.07;;;24.30;;
8803;SDS011;4438;50.890;4.726;2022-08-19T06:04:22;26.07;;;22.73;;
8803;SDS011;4438;50.890;4.726;2022-08-19T06:06:49;28.33;;;24.27;;
8803;SDS011;4438;50.890;4.726;2022-08-19T06:09:17;28.80;;;23.60;;
8803;SDS011;4438;50.890;4.726;2022-08-19T06:11:47;27.17;;;22.53;;
8803;SDS011;4438;50.890;4.726;2022-08-19T06:14:16;31.60;;;24.30;;
8803;SDS011;4438;50.890;4.726;2022-08-19T06:16:43;28.67;;;22.60;;
8803;SDS011;4438;50.890;4.726;2022-08-19T06:19:14;27.27;;;24.33;;
8803;SDS011;4438;50.890;4.726;2022-08-19T06:21:42;26.20;;;23.30;;
8803;SDS011;4438;50.890;4.726;2022-08-19T06:24:10;26.53;;;22.63;;
8803;SDS011;4438;50.890;4.726;2022-08-19T06:26:37;26.13;;;23.07;;
8803;SDS011;4438;50.890;4.726;2022-08-19T06:29:04;25.67;;;20.93;;
8803;SDS011;4438;50.890;4.726;2022-08-19T06:31:31;27.93;;;23.07;;
8803;SDS011;4438;50.890;4.726;2022-08-19T06:33:59;25.70;;;21.77;;
8803;SDS011;4438;50.890;4.726;2022-08-19T06:36:28;27.40;;;21.83;;
8803;SDS011;4438;50.890;4.726;2022-08-19T06:38:59;23.97;;;20.63;;
8803;SDS011;4438;50.890;4.726;2022-08-19T06:41:25;24.33;;;20.53;;
8803;SDS011;4438;50.890;4.726;2022-08-19T06:43:52;23.33;;;19.67;;
8803;SDS011;4438;50.890;4.726;2022-08-19T06:46:18;22.70;;;20.07;;
8803;SDS011;4438;50.890;4.726;2022-08-19T06:48:45;22.40;;;19.47;;
8803;SDS011;4438;50.890;4.726;2022-08-19T06:51:11;22.90;;;19.73;;
8803;SDS011;4438;50.890;4.726;2022-08-19T06:53:40;20.37;;;18.20;;
8803;SDS011;4438;50.890;4.726;2022-08-19T06:56:15;21.97;;;19.03;;
8803;SDS011;4438;50.890;4.726;2022-08-19T06:58:42;20.87;;;18.67;;
8803;SDS011;4438;50.890;4.726;2022-08-19T07:01:09;22.57;;;17.97;;
8803;SDS011;4438;50.890;4.726;2022-08-19T07:03:36;22.17;;;18.53;;
8803;SDS011;4438;50.890;4.726;2022-08-19T07:06:04;21.13;;;18.33;;
8803;SDS011;4438;50.890;4.726;2022-08-19T07:08:30;19.97;;;17.70;;
8803;SDS011;4438;50.890;4.726;2022-08-19T07:10:56;20.77;;;17.80;;
8803;SDS011;4438;50.890;4.726;2022-08-19T07:13:22;20.17;;;16.83;;
8803;SDS011;4438;50.890;4.726;2022-08-19T07:15:48;20.37;;;16.93;;
8803;SDS011;4438;50.890;4.726;2022-08-19T07:18:16;18.40;;;16.60;;
8803;SDS011;4438;50.890;4.726;2022-08-19T07:20:42;20.27;;;16.17;;
8803;SDS011;4438;50.890;4.726;2022-08-19T07:23:08;19.27;;;17.00;;
8803;SDS011;4438;50.890;4.726;2022-08-19T07:25:36;18.80;;;16.47;;
8803;SDS011;4438;50.890;4.726;2022-08-19T07:28:02;17.57;;;15.77;;
8803;SDS011;4438;50.890;4.726;2022-08-19T07:30:28;16.83;;;14.60;;
8803;SDS011;4438;50.890;4.726;2022-08-19T07:32:55;17.43;;;15.53;;
8803;SDS011;4438;50.890;4.726;2022-08-19T07:35:21;17.70;;;14.27;;
8803;SDS011;4438;50.890;4.726;2022-08-19T07:37:48;15.80;;;14.10;;
8803;SDS011;4438;50.890;4.726;2022-08-19T07:40:14;14.53;;;13.03;;
8803;SDS011;4438;50.890;4.726;2022-08-19T07:42:41;16.77;;;13.13;;
8803;SDS011;4438;50.890;4.726;2022-08-19T07:45:08;16.57;;;12.20;;
8803;SDS011;4438;50.890;4.726;2022-08-19T07:47:35;12.20;;;10.93;;
8803;SDS011;4438;50.890;4.726;2022-08-19T07:50:01;12.50;;;10.30;;
8803;SDS011;4438;50.890;4.726;2022-08-19T07:52:29;10.40;;;9.17;;
8803;SDS011;4438;50.890;4.726;2022-08-19T07:54:55;10.83;;;8.80;;
8803;SDS011;4438;50.890;4.726;2022-08-19T07:57:22;9.33;;;8.30;;
8803;SDS011;4438;50.890;4.726;2022-08-19T07:59:48;9.30;;;8.40;;
8803;SDS011;4438;50.890;4.726;2022-08-19T08:02:14;8.80;;;7.53;;
8803;SDS011;4438;50.890;4.726;2022-08-19T08:04:40;8.53;;;7.50;;
8803;SDS011;4438;50.890;4.726;2022-08-19T08:07:25;7.43;;;6.20;;
8803;SDS011;4438;50.890;4.726;2022-08-19T08:10:09;7.20;;;6.13;;
8803;SDS011;4438;50.890;4.726;2022-08-19T08:12:37;6.37;;;5.77;;
8803;SDS011;4438;50.890;4.726;2022-08-19T08:15:08;6.87;;;5.73;;
8803;SDS011;4438;50.890;4.726;2022-08-19T08:17:34;6.50;;;5.87;;
8803;SDS011;4438;50.890;4.726;2022-08-19T08:20:02;5.83;;;5.33;;
8803;SDS011;4438;50.890;4.726;2022-08-19T08:22:31;5.70;;;5.17;;
8803;SDS011;4438;50.890;4.726;2022-08-19T08:25:17;6.43;;;5.60;;
8803;SDS011;4438;50.890;4.726;2022-08-19T08:27:44;5.90;;;5.30;;
8803;SDS011;4438;50.890;4.726;2022-08-19T08:30:12;7.40;;;5.17;;
8803;SDS011;4438;50.890;4.726;2022-08-19T08:32:39;7.37;;;6.20;;
8803;SDS011;4438;50.890;4.726;2022-08-19T08:35:06;6.97;;;5.80;;
8803;SDS011;4438;50.890;4.726;2022-08-19T08:37:33;7.70;;;6.10;;
8803;SDS011;4438;50.890;4.726;2022-08-19T08:40:02;7.77;;;5.97;;
8803;SDS011;4438;50.890;4.726;2022-08-19T08:42:30;6.20;;;5.70;;
8803;SDS011;4438;50.890;4.726;2022-08-19T08:44:58;7.43;;;6.33;;
8803;SDS011;4438;50.890;4.726;2022-08-19T08:47:26;7.40;;;6.37;;
8803;SDS011;4438;50.890;4.726;2022-08-19T08:49:55;7.67;;;6.57;;
8803;SDS011;4438;50.890;4.726;2022-08-19T08:52:24;7.53;;;6.83;;
8803;SDS011;4438;50.890;4.726;2022-08-19T08:54:52;7.00;;;6.30;;
8803;SDS011;4438;50.890;4.726;2022-08-19T08:57:27;7.77;;;6.13;;
8803;SDS011;4438;50.890;4.726;2022-08-19T08:59:56;6.60;;;6.00;;
8803;SDS011;4438;50.890;4.726;2022-08-19T09:02:22;8.23;;;6.70;;
8803;SDS011;4438;50.890;4.726;2022-08-19T09:04:48;6.57;;;5.80;;
8803;SDS011;4438;50.890;4.726;2022-08-19T09:09:45;7.80;;;6.33;;
8803;SDS011;4438;50.890;4.726;2022-08-19T09:14:41;7.13;;;6.03;;
8803;SDS011;4438;50.890;4.726;2022-08-19T09:17:11;7.87;;;5.53;;
8803;SDS011;4438;50.890;4.726;2022-08-19T09:19:47;6.37;;;5.63;;
8803;SDS011;4438;50.890;4.726;2022-08-19T09:22:14;5.60;;;5.10;;
8803;SDS011;4438;50.890;4.726;2022-08-19T09:24:40;6.10;;;5.50;;
8803;SDS011;4438;50.890;4.726;2022-08-19T09:27:06;5.60;;;5.10;;
8803;SDS011;4438;50.890;4.726;2022-08-19T09:29:33;7.57;;;5.97;;
8803;SDS011;4438;50.890;4.726;2022-08-19T09:31:59;5.80;;;4.80;;
8803;SDS011;4438;50.890;4.726;2022-08-19T09:34:25;5.80;;;5.23;;
8803;SDS011;4438;50.890;4.726;2022-08-19T09:36:54;5.77;;;5.17;;
8803;SDS011;4438;50.890;4.726;2022-08-19T09:39:23;4.97;;;4.47;;
8803;SDS011;4438;50.890;4.726;2022-08-19T09:41:49;5.90;;;5.07;;
8803;SDS011;4438;50.890;4.726;2022-08-19T09:44:15;5.70;;;4.93;;
8803;SDS011;4438;50.890;4.726;2022-08-19T09:46:41;5.07;;;4.50;;
8803;SDS011;4438;50.890;4.726;2022-08-19T09:49:07;5.23;;;4.73;;
8803;SDS011;4438;50.890;4.726;2022-08-19T09:51:33;5.80;;;4.47;;
8803;SDS011;4438;50.890;4.726;2022-08-19T09:54:00;4.70;;;4.30;;
8803;SDS011;4438;50.890;4.726;2022-08-19T09:56:28;5.67;;;5.10;;
8803;SDS011;4438;50.890;4.726;2022-08-19T09:58:56;5.97;;;5.37;;
8803;SDS011;4438;50.890;4.726;2022-08-19T10:01:24;5.53;;;5.03;;
8803;SDS011;4438;50.890;4.726;2022-08-19T10:03:52;5.97;;;4.77;;
8803;SDS011;4438;50.890;4.726;2022-08-19T10:06:19;5.93;;;5.40;;
8803;SDS011;4438;50.890;4.726;2022-08-19T10:08:46;5.97;;;5.37;;
8803;SDS011;4438;50.890;4.726;2022-08-19T10:11:12;6.03;;;5.00;;
8803;SDS011;4438;50.890;4.726;2022-08-19T10:13:41;5.70;;;5.00;;
8803;SDS011;4438;50.890;4.726;2022-08-19T10:16:08;5.93;;;5.20;;
8803;SDS011;4438;50.890;4.726;2022-08-19T10:18:35;6.07;;;5.10;;
8803;SDS011;4438;50.890;4.726;2022-08-19T10:21:04;7.80;;;6.53;;
8803;SDS011;4438;50.890;4.726;2022-08-19T10:23:34;5.90;;;5.30;;
8803;SDS011;4438;50.890;4.726;2022-08-19T10:26:01;5.80;;;5.30;;
8803;SDS011;4438;50.890;4.726;2022-08-19T10:28:28;6.50;;;5.47;;
8803;SDS011;4438;50.890;4.726;2022-08-19T10:30:54;5.90;;;5.37;;
8803;SDS011;4438;50.890;4.726;2022-08-19T10:33:20;5.73;;;5.10;;
8803;SDS011;4438;50.890;4.726;2022-08-19T10:35:47;5.20;;;4.70;;
8803;SDS011;4438;50.890;4.726;2022-08-19T10:38:13;6.50;;;5.30;;
8803;SDS011;4438;50.890;4.726;2022-08-19T10:40:40;5.47;;;4.93;;
8803;SDS011;4438;50.890;4.726;2022-08-19T10:43:06;6.50;;;4.50;;
8803;SDS011;4438;50.890;4.726;2022-08-19T10:45:32;6.63;;;4.80;;
8803;SDS011;4438;50.890;4.726;2022-08-19T10:47:58;5.30;;;4.80;;
8803;SDS011;4438;50.890;4.726;2022-08-19T10:50:24;5.40;;;4.90;;
8803;SDS011;4438;50.890;4.726;2022-08-19T10:53:08;6.00;;;5.37;;
8803;SDS011;4438;50.890;4.726;2022-08-19T10:55:34;5.63;;;5.13;;
8803;SDS011;4438;50.890;4.726;2022-08-19T10:58:20;5.43;;;4.83;;
8803;SDS011;4438;50.890;4.726;2022-08-19T11:00:52;6.63;;;5.03;;
8803;SDS011;4438;50.890;4.726;2022-08-19T11:03:18;5.40;;;4.90;;
8803;SDS011;4438;50.890;4.726;2022-08-19T11:05:44;5.60;;;4.70;;
8803;SDS011;4438;50.890;4.726;2022-08-19T11:08:11;5.40;;;4.90;;
8803;SDS011;4438;50.890;4.726;2022-08-19T11:10:41;4.77;;;4.37;;
8803;SDS011;4438;50.890;4.726;2022-08-19T11:13:07;5.33;;;4.73;;
8803;SDS011;4438;50.890;4.726;2022-08-19T11:15:33;5.83;;;5.13;;
8803;SDS011;4438;50.890;4.726;2022-08-19T11:17:59;4.50;;;4.10;;
8803;SDS011;4438;50.890;4.726;2022-08-19T11:20:25;4.37;;;3.97;;
8803;SDS011;4438;50.890;4.726;2022-08-19T11:22:52;4.63;;;4.23;;
8803;SDS011;4438;50.890;4.726;2022-08-19T11:25:18;8.37;;;4.27;;
8803;SDS011;4438;50.890;4.726;2022-08-19T11:27:44;4.43;;;3.93;;
8803;SDS011;4438;50.890;4.726;2022-08-19T11:30:15;4.43;;;4.03;;
8803;SDS011;4438;50.890;4.726;2022-08-19T11:32:42;4.83;;;4.30;;
8803;SDS011;4438;50.890;4.726;2022-08-19T11:35:08;4.00;;;3.30;;
8803;SDS011;4438;50.890;4.726;2022-08-19T11:37:36;6.43;;;4.10;;
8803;SDS011;4438;50.890;4.726;2022-08-19T11:40:03;3.80;;;3.30;;
8803;SDS011;4438;50.890;4.726;2022-08-19T11:42:30;4.30;;;3.90;;
8803;SDS011;4438;50.890;4.726;2022-08-19T11:45:14;3.73;;;3.43;;
8803;SDS011;4438;50.890;4.726;2022-08-19T11:47:40;4.23;;;3.83;;
8803;SDS011;4438;50.890;4.726;2022-08-19T11:50:06;4.40;;;4.00;;
8803;SDS011;4438;50.890;4.726;2022-08-19T11:52:33;6.63;;;4.67;;
8803;SDS011;4438;50.890;4.726;2022-08-19T11:54:59;4.47;;;3.97;;
8803;SDS011;4438;50.890;4.726;2022-08-19T11:57:25;7.43;;;4.80;;
8803;SDS011;4438;50.890;4.726;2022-08-19T11:59:51;5.73;;;5.07;;
8803;SDS011;4438;50.890;4.726;2022-08-19T12:02:18;5.80;;;5.17;;
8803;SDS011;4438;50.890;4.726;2022-08-19T12:04:44;5.63;;;5.13;;
8803;SDS011;4438;50.890;4.726;2022-08-19T12:07:10;6.07;;;5.47;;
8803;SDS011;4438;50.890;4.726;2022-08-19T12:09:36;6.50;;;5.90;;
8803;SDS011;4438;50.890;4.726;2022-08-19T12:12:04;5.07;;;4.60;;
8803;SDS011;4438;50.890;4.726;2022-08-19T12:14:30;5.90;;;5.40;;
8803;SDS011;4438;50.890;4.726;2022-08-19T12:16:57;6.27;;;5.00;;
8803;SDS011;4438;50.890;4.726;2022-08-19T12:19:23;5.87;;;5.27;;
8803;SDS011;4438;50.890;4.726;2022-08-19T12:21:49;6.17;;;5.23;;
8803;SDS011;4438;50.890;4.726;2022-08-19T12:24:16;7.43;;;6.40;;
8803;SDS011;4438;50.890;4.726;2022-08-19T12:26:48;7.00;;;6.30;;
8803;SDS011;4438;50.890;4.726;2022-08-19T12:29:14;9.47;;;6.60;;
8803;SDS011;4438;50.890;4.726;2022-08-19T12:31:40;8.40;;;6.60;;
8803;SDS011;4438;50.890;4.726;2022-08-19T12:34:06;8.10;;;6.63;;
8803;SDS011;4438;50.890;4.726;2022-08-19T12:36:32;7.83;;;7.10;;
8803;SDS011;4438;50.890;4.726;2022-08-19T12:38:58;8.20;;;7.40;;
8803;SDS011;4438;50.890;4.726;2022-08-19T12:41:25;7.10;;;6.40;;
8803;SDS011;4438;50.890;4.726;2022-08-19T12:43:51;8.10;;;7.40;;
8803;SDS011;4438;50.890;4.726;2022-08-19T12:46:18;10.47;;;7.83;;
8803;SDS011;4438;50.890;4.726;2022-08-19T12:48:45;8.57;;;7.70;;
8803;SDS011;4438;50.890;4.726;2022-08-19T12:51:12;8.10;;;7.33;;
8803;SDS011;4438;50.890;4.726;2022-08-19T12:53:39;6.83;;;6.23;;
8803;SDS011;4438;50.890;4.726;2022-08-19T12:56:06;6.97;;;6.37;;
8803;SDS011;4438;50.890;4.726;2022-08-19T12:58:32;7.33;;;6.63;;
8803;SDS011;4438;50.890;4.726;2022-08-19T13:00:59;7.17;;;6.57;;
8803;SDS011;4438;50.890;4.726;2022-08-19T13:03:25;6.23;;;5.73;;
8803;SDS011;4438;50.890;4.726;2022-08-19T13:05:54;6.53;;;5.93;;
8803;SDS011;4438;50.890;4.726;2022-08-19T13:08:20;6.53;;;5.97;;
8803;SDS011;4438;50.890;4.726;2022-08-19T13:10:46;5.83;;;5.33;;
8803;SDS011;4438;50.890;4.726;2022-08-19T13:13:12;6.50;;;5.97;;
8803;SDS011;4438;50.890;4.726;2022-08-19T13:15:40;5.80;;;5.20;;
8803;SDS011;4438;50.890;4.726;2022-08-19T13:18:07;6.37;;;5.67;;
8803;SDS011;4438;50.890;4.726;2022-08-19T13:20:34;4.60;;;4.20;;
8803;SDS011;4438;50.890;4.726;2022-08-19T13:23:00;4.35;;;4.05;;
8803;SDS011;4438;50.890;4.726;2022-08-19T13:25:26;5.68;;;5.28;;
8803;SDS011;4438;50.890;4.726;2022-08-19T13:27:52;4.63;;;4.28;;
8803;SDS011;4438;50.890;4.726;2022-08-19T13:30:20;5.18;;;4.47;;
8803;SDS011;4438;50.890;4.726;2022-08-19T13:33:06;4.72;;;4.28;;
8803;SDS011;4438;50.890;4.726;2022-08-19T13:35:36;4.35;;;3.95;;
8803;SDS011;4438;50.890;4.726;2022-08-19T13:38:02;5.47;;;4.97;;
8803;SDS011;4438;50.890;4.726;2022-08-19T13:40:29;4.80;;;4.40;;
8803;SDS011;4438;50.890;4.726;2022-08-19T13:42:59;4.30;;;3.97;;
8803;SDS011;4438;50.890;4.726;2022-08-19T13:45:26;4.97;;;4.57;;
8803;SDS011;4438;50.890;4.726;2022-08-19T13:47:53;4.63;;;4.22;;
8803;SDS011;4438;50.890;4.726;2022-08-19T13:50:22;3.87;;;3.57;;
8803;SDS011;4438;50.890;4.726;2022-08-19T13:52:50;4.10;;;3.80;;
8803;SDS011;4438;50.890;4.726;2022-08-19T13:55:16;2.90;;;2.70;;
8803;SDS011;4438;50.890;4.726;2022-08-19T13:57:42;3.27;;;3.07;;
8803;SDS011;4438;50.890;4.726;2022-08-19T14:00:10;3.13;;;2.90;;
8803;SDS011;4438;50.890;4.726;2022-08-19T14:02:38;2.70;;;2.50;;
8803;SDS011;4438;50.890;4.726;2022-08-19T14:05:05;2.77;;;2.57;;
8803;SDS011;4438;50.890;4.726;2022-08-19T14:07:32;2.70;;;2.50;;
8803;SDS011;4438;50.890;4.726;2022-08-19T14:09:58;2.60;;;2.40;;
8803;SDS011;4438;50.890;4.726;2022-08-19T14:12:24;3.50;;;2.70;;
8803;SDS011;4438;50.890;4.726;2022-08-19T14:14:50;3.10;;;2.43;;
8803;SDS011;4438;50.890;4.726;2022-08-19T14:17:16;2.67;;;2.47;;
8803;SDS011;4438;50.890;4.726;2022-08-19T14:19:42;2.43;;;2.23;;
8803;SDS011;4438;50.890;4.726;2022-08-19T14:22:09;2.40;;;2.20;;
8803;SDS011;4438;50.890;4.726;2022-08-19T14:24:36;2.40;;;2.20;;
8803;SDS011;4438;50.890;4.726;2022-08-19T14:27:05;2.50;;;2.30;;
8803;SDS011;4438;50.890;4.726;2022-08-19T14:29:31;1.90;;;1.80;;
8803;SDS011;4438;50.890;4.726;2022-08-19T14:31:57;3.33;;;2.30;;
8803;SDS011;4438;50.890;4.726;2022-08-19T14:34:24;2.50;;;2.20;;
8803;SDS011;4438;50.890;4.726;2022-08-19T14:36:51;2.43;;;2.00;;
8803;SDS011;4438;50.890;4.726;2022-08-19T14:39:17;2.53;;;2.00;;
8803;SDS011;4438;50.890;4.726;2022-08-19T14:41:43;2.77;;;2.20;;
8803;SDS011;4438;50.890;4.726;2022-08-19T14:44:12;2.63;;;2.20;;
8803;SDS011;4438;50.890;4.726;2022-08-19T14:46:39;2.23;;;2.03;;
8803;SDS011;4438;50.890;4.726;2022-08-19T14:49:05;2.63;;;2.03;;
8803;SDS011;4438;50.890;4.726;2022-08-19T14:51:32;2.77;;;2.20;;
8803;SDS011;4438;50.890;4.726;2022-08-19T14:53:58;2.40;;;2.00;;
8803;SDS011;4438;50.890;4.726;2022-08-19T14:56:26;2.33;;;1.90;;
8803;SDS011;4438;50.890;4.726;2022-08-19T14:58:52;3.73;;;2.23;;
8803;SDS011;4438;50.890;4.726;2022-08-19T15:01:19;3.63;;;1.90;;
8803;SDS011;4438;50.890;4.726;2022-08-19T15:03:46;2.27;;;2.07;;
8803;SDS011;4438;50.890;4.726;2022-08-19T15:06:12;2.27;;;1.97;;
8803;SDS011;4438;50.890;4.726;2022-08-19T15:08:39;1.90;;;1.80;;
8803;SDS011;4438;50.890;4.726;2022-08-19T15:11:09;4.47;;;1.90;;
8803;SDS011;4438;50.890;4.726;2022-08-19T15:13:36;3.03;;;1.90;;